createdAt,value
2023-01-31T00:01:39.074Z,-1044.00
2023-01-31T00:06:46.229Z,-1044.00
2023-01-31T00:11:53.436Z,-1044.00
2023-01-31T00:17:00.638Z,-1044.00
2023-01-31T00:22:07.782Z,-1044.00
2023-01-31T00:27:15.004Z,-1044.00
2023-01-31T00:32:22.283Z,-1044.00
2023-01-31T00:37:29.476Z,-1044.00
2023-01-31T00:42:36.918Z,-1044.00
2023-01-31T00:47:44.083Z,-1080.00
2023-01-31T00:52:51.317Z,-1044.00
2023-01-31T00:57:58.601Z,-1044.00
2023-01-31T01:03:05.917Z,-1080.00
2023-01-31T01:08:13.087Z,-1080.00
2023-01-31T01:13:20.336Z,-1044.00
2023-01-31T01:18:27.537Z,-1044.00
2023-01-31T01:23:34.724Z,-1044.00
2023-01-31T01:28:41.983Z,-1044.00
2023-01-31T01:33:49.242Z,-1044.00
2023-01-31T01:38:56.527Z,-1044.00
2023-01-31T01:44:03.752Z,-1044.00
2023-01-31T01:49:11.028Z,-1080.00
2023-01-31T01:54:18.250Z,-1044.00
2023-01-31T01:59:25.511Z,-1044.00
2023-01-31T02:04:32.737Z,-1044.00
2023-01-31T02:09:39.882Z,-1044.00
2023-01-31T02:14:47.080Z,-1044.00
2023-01-31T02:19:54.444Z,-1044.00
2023-01-31T02:25:01.631Z,-1044.00
2023-01-31T02:30:08.908Z,-1080.00
2023-01-31T02:35:16.117Z,-1044.00
2023-01-31T02:40:23.262Z,-1044.00
2023-01-31T02:45:30.459Z,-1044.00
2023-01-31T02:50:37.681Z,-1044.00
2023-01-31T02:55:44.932Z,-1044.00
2023-01-31T03:00:52.229Z,-1080.00
2023-01-31T03:05:59.431Z,-1044.00
2023-01-31T03:11:06.586Z,-1080.00
2023-01-31T03:16:13.986Z,-1080.00
2023-01-31T03:21:21.305Z,-1044.00
2023-01-31T03:26:28.580Z,-1044.00
2023-01-31T03:31:35.992Z,-1044.00
2023-01-31T03:36:42.908Z,-1044.00
2023-01-31T03:41:50.128Z,-1080.00
2023-01-31T03:46:57.431Z,-1044.00
2023-01-31T03:52:04.597Z,-1044.00
2023-01-31T03:57:11.747Z,-1044.00
2023-01-31T04:02:18.942Z,-1044.00
2023-01-31T04:07:26.185Z,-1044.00
2023-01-31T04:12:33.389Z,-1080.00
2023-01-31T04:17:40.631Z,-1044.00
2023-01-31T04:22:47.992Z,-1044.00
2023-01-31T04:27:55.098Z,-1044.00
2023-01-31T04:33:02.342Z,-1044.00
2023-01-31T04:38:10.041Z,-1080.00
2023-01-31T04:43:16.758Z,-1044.00
2023-01-31T04:48:24.140Z,-1044.00
2023-01-31T04:53:31.790Z,-1080.00
2023-01-31T04:58:38.646Z,-1044.00
2023-01-31T05:03:45.886Z,-1044.00
2023-01-31T05:08:53.085Z,-1080.00
2023-01-31T05:14:00.255Z,-1080.00
2023-01-31T05:19:07.508Z,-1080.00
2023-01-31T05:24:14.758Z,-1044.00
2023-01-31T05:29:21.929Z,-1080.00
2023-01-31T05:34:29.071Z,-1080.00
2023-01-31T05:39:36.279Z,-1044.00
2023-01-31T05:44:43.449Z,-1080.00
2023-01-31T05:49:50.722Z,-1044.00
2023-01-31T05:54:57.956Z,-1080.00
2023-01-31T06:00:05.102Z,-1080.00
2023-01-31T06:05:12.314Z,-1080.00
2023-01-31T06:10:21.059Z,-1080.00
2023-01-31T06:15:26.862Z,-1080.00
2023-01-31T06:20:34.044Z,-1080.00
2023-01-31T06:25:41.247Z,0.00
2023-01-31T06:30:48.533Z,-1080.00
2023-01-31T06:35:55.956Z,-1044.00
2023-01-31T06:41:02.853Z,-1044.00
2023-01-31T06:46:10.188Z,-1044.00
2023-01-31T06:51:17.245Z,-1044.00
2023-01-31T06:56:24.448Z,-1044.00
2023-01-31T07:01:31.678Z,-1044.00
2023-01-31T07:06:38.807Z,-1044.00
2023-01-31T07:11:46.016Z,1872.00
2023-01-31T07:16:53.168Z,2160.00
2023-01-31T07:22:00.366Z,2808.00
2023-01-31T07:27:07.563Z,4212.00
2023-01-31T07:32:14.745Z,4788.00
2023-01-31T07:37:21.924Z,6948.00
2023-01-31T07:42:29.875Z,8280.00
2023-01-31T07:47:36.381Z,10332.00
2023-01-31T07:52:43.574Z,11844.00
2023-01-31T07:57:50.978Z,12024.00
2023-01-31T08:02:58.159Z,10908.00
2023-01-31T08:08:05.406Z,9000.00
2023-01-31T08:13:12.653Z,8892.00
2023-01-31T08:18:20.446Z,9000.00
2023-01-31T08:23:27.572Z,10800.00
2023-01-31T08:28:34.817Z,11124.00
2023-01-31T08:33:41.946Z,11088.00
2023-01-31T08:38:49.543Z,10332.00
2023-01-31T08:43:58.243Z,10260.00
2023-01-31T08:49:03.771Z,10836.00
2023-01-31T08:54:10.991Z,10548.00
2023-01-31T08:59:18.201Z,10548.00
2023-01-31T09:04:26.676Z,10584.00
2023-01-31T09:09:34.082Z,10656.00
2023-01-31T09:14:41.417Z,10728.00
2023-01-31T09:19:48.523Z,10800.00
2023-01-31T09:24:55.710Z,10872.00
2023-01-31T09:30:03.046Z,10944.00
2023-01-31T09:35:10.899Z,11016.00
2023-01-31T09:40:17.429Z,11052.00
2023-01-31T09:45:24.663Z,11160.00
2023-01-31T09:50:32.060Z,11232.00
2023-01-31T09:55:39.018Z,11268.00
2023-01-31T10:00:46.417Z,11340.00
2023-01-31T10:05:53.480Z,11376.00
2023-01-31T10:11:00.738Z,11448.00
2023-01-31T10:16:07.917Z,11520.00
2023-01-31T10:21:15.053Z,11592.00
2023-01-31T10:26:22.302Z,11700.00
2023-01-31T10:31:29.477Z,11952.00
2023-01-31T10:36:36.583Z,12312.00
2023-01-31T10:41:43.893Z,13716.00
2023-01-31T10:46:51.099Z,14436.00
2023-01-31T10:51:58.259Z,16020.00
2023-01-31T10:57:05.461Z,15696.00
2023-01-31T11:02:12.786Z,13968.00
2023-01-31T11:07:19.806Z,14760.00
2023-01-31T11:12:27.025Z,16560.00
2023-01-31T11:17:34.296Z,16956.00
2023-01-31T11:22:41.513Z,13032.00
2023-01-31T11:27:48.755Z,12744.00
2023-01-31T11:32:55.955Z,12024.00
2023-01-31T11:38:03.117Z,13896.00
2023-01-31T11:43:10.314Z,15912.00
2023-01-31T11:48:17.546Z,17712.00
2023-01-31T11:53:24.763Z,17460.00
2023-01-31T11:58:31.950Z,15408.00
2023-01-31T12:03:51.828Z,15624.00
2023-01-31T12:08:46.339Z,15192.00
2023-01-31T12:13:53.572Z,16164.00
2023-01-31T12:19:00.819Z,15264.00
2023-01-31T12:24:07.923Z,15732.00
2023-01-31T12:29:15.259Z,16668.00
2023-01-31T12:34:22.575Z,16884.00
2023-01-31T12:39:29.727Z,16272.00
2023-01-31T12:44:37.417Z,14220.00
2023-01-31T12:49:44.652Z,10512.00
2023-01-31T12:54:52.010Z,9468.00
2023-01-31T12:59:59.173Z,10044.00
2023-01-31T13:05:06.395Z,11700.00
2023-01-31T13:10:13.544Z,13176.00
2023-01-31T13:15:21.036Z,12528.00
2023-01-31T13:20:27.941Z,12492.00
2023-01-31T13:25:35.238Z,12456.00
2023-01-31T13:30:42.448Z,10368.00
2023-01-31T13:35:49.736Z,11808.00
2023-01-31T13:40:57.030Z,10944.00
2023-01-31T13:46:04.261Z,11088.00
2023-01-31T13:51:11.778Z,15084.00
2023-01-31T13:56:19.047Z,13248.00
2023-01-31T14:01:26.272Z,14724.00
2023-01-31T14:06:33.454Z,14040.00
2023-01-31T14:11:40.741Z,13716.00
2023-01-31T14:16:48.204Z,12600.00
2023-01-31T14:21:55.144Z,11880.00
2023-01-31T14:27:02.319Z,11772.00
2023-01-31T14:32:09.528Z,10764.00
2023-01-31T14:37:16.777Z,12888.00
2023-01-31T14:42:23.974Z,12096.00
2023-01-31T14:47:31.201Z,9396.00
2023-01-31T14:52:38.496Z,8568.00
2023-01-31T14:57:45.649Z,7092.00
2023-01-31T15:02:53.834Z,7092.00
2023-01-31T15:08:00.993Z,6012.00
2023-01-31T15:13:08.265Z,6480.00
2023-01-31T15:18:15.675Z,4356.00
2023-01-31T15:23:22.920Z,3492.00
2023-01-31T15:28:30.140Z,2664.00
2023-01-31T15:33:37.318Z,3096.00
2023-01-31T15:38:44.513Z,2376.00
2023-01-31T15:43:51.627Z,1692.00
2023-01-31T15:48:58.777Z,1332.00
2023-01-31T15:54:06.292Z,1404.00
2023-01-31T15:59:13.153Z,684.00
2023-01-31T16:04:20.340Z,36.00
2023-01-31T16:09:27.699Z,-468.00
2023-01-31T16:14:34.901Z,-504.00
2023-01-31T16:19:42.087Z,-648.00
2023-01-31T16:24:49.287Z,-828.00
2023-01-31T16:29:58.933Z,-900.00
2023-01-31T16:35:04.021Z,-1008.00
2023-01-31T16:40:11.319Z,-972.00
2023-01-31T16:45:19.306Z,-1044.00
2023-01-31T16:50:41.821Z,-1044.00
2023-01-31T16:55:35.566Z,-1044.00
2023-01-31T17:00:42.811Z,-1044.00
2023-01-31T17:05:50.413Z,-1044.00
2023-01-31T17:10:58.124Z,-1044.00
2023-01-31T17:16:05.806Z,-1080.00
2023-01-31T17:21:15.038Z,-1008.00
2023-01-31T17:26:21.466Z,-1044.00
2023-01-31T17:31:28.993Z,-1044.00
2023-01-31T17:36:36.579Z,-1044.00
2023-01-31T17:41:44.722Z,-1080.00
2023-01-31T17:46:52.151Z,-1080.00
2023-01-31T17:51:59.780Z,-1080.00
2023-01-31T17:57:07.486Z,-1044.00
2023-01-31T18:02:15.157Z,-1044.00
2023-01-31T18:07:22.771Z,-1080.00
2023-01-31T18:12:30.113Z,-1080.00
2023-01-31T18:17:37.592Z,-1044.00
2023-01-31T18:22:45.312Z,-1080.00
2023-01-31T18:27:52.950Z,108.00
2023-01-31T18:33:00.556Z,6480.00
2023-01-31T18:38:08.251Z,6588.00
2023-01-31T18:43:15.902Z,6228.00
2023-01-31T18:48:23.484Z,6516.00
2023-01-31T18:53:31.148Z,6264.00
2023-01-31T18:58:38.568Z,6264.00
2023-01-31T19:03:45.944Z,6480.00
2023-01-31T19:08:53.529Z,6156.00
2023-01-31T19:14:00.864Z,6192.00
2023-01-31T19:19:08.245Z,6192.00
2023-01-31T19:24:15.993Z,6156.00
2023-01-31T19:29:23.623Z,6516.00
2023-01-31T19:34:30.980Z,6372.00
2023-01-31T19:39:38.225Z,6300.00
2023-01-31T19:44:45.758Z,6336.00
2023-01-31T19:49:53.432Z,6372.00
2023-01-31T19:55:01.145Z,6336.00
2023-01-31T20:00:08.514Z,6336.00
2023-01-31T20:05:15.958Z,6588.00
2023-01-31T20:10:23.819Z,6444.00
2023-01-31T20:15:30.925Z,6444.00
2023-01-31T20:20:38.711Z,6264.00
2023-01-31T20:25:46.447Z,6516.00
2023-01-31T20:30:54.151Z,6336.00
2023-01-31T20:36:01.395Z,6264.00
2023-01-31T20:41:09.087Z,6192.00
2023-01-31T20:46:17.361Z,6300.00
2023-01-31T20:51:24.595Z,6336.00
2023-01-31T20:56:32.201Z,6192.00
2023-01-31T21:01:39.938Z,6264.00
2023-01-31T21:06:47.531Z,6156.00
2023-01-31T21:11:55.657Z,6156.00
2023-01-31T21:17:02.819Z,6336.00
2023-01-31T21:22:09.988Z,6372.00
2023-01-31T21:27:17.191Z,6372.00
2023-01-31T21:32:24.381Z,6300.00
2023-01-31T21:37:31.536Z,6372.00
2023-01-31T21:42:38.799Z,6408.00
2023-01-31T21:47:46.012Z,6120.00
2023-01-31T21:52:53.195Z,6156.00
2023-01-31T21:58:00.362Z,6228.00
2023-01-31T22:03:07.584Z,6192.00
2023-01-31T22:08:14.736Z,6156.00
2023-01-31T22:13:21.918Z,6156.00
2023-01-31T22:18:29.152Z,6192.00
2023-01-31T22:23:36.276Z,6012.00
2023-01-31T22:28:43.484Z,5904.00
2023-01-31T22:33:50.730Z,6228.00
2023-01-31T22:38:57.944Z,6300.00
2023-01-31T22:44:05.146Z,6156.00
2023-01-31T22:49:12.421Z,-1080.00
2023-01-31T22:54:19.497Z,-1080.00
2023-01-31T22:59:26.864Z,-1116.00
2023-01-31T23:04:34.219Z,-1080.00
2023-01-31T23:09:41.376Z,-1080.00
2023-01-31T23:14:48.647Z,-1080.00
2023-01-31T23:19:55.896Z,-1044.00
2023-01-31T23:25:03.257Z,-1080.00
2023-01-31T23:30:10.513Z,-1080.00
2023-01-31T23:35:17.736Z,-1116.00
2023-01-31T23:40:24.858Z,-1116.00
2023-01-31T23:45:32.045Z,-1116.00
2023-01-31T23:50:39.262Z,-1116.00
2023-01-31T23:55:46.424Z,-1080.00
